• Join FlightAware (Why Join?)
  • Login
  • US Flag 
05:03AM EDT


 

Airport Tracker/Info


-or-


 

Live Flight TrackerFlight Track Log ✈ SWA1130 ✈ 26-Oct-2013 ✈ KMDW - KCAK

Flight Track Log - Related Links

Times and Time Zones

All times are in EDT time to prevent confusion due to time zone crossing. See the SWA1130 flight status page for this flight to view local times or setup timezone preferences in your user account.

Time Position Orientation Groundspeed Altitude Reporting Facility
EDT Latitude Longitude Course Direction KTS MPH feet Rate Location/Type
06:31PM 41.8167 -87.6464 90° East 224 258 4,300  Level Chicago Center
06:32PM 41.8114 -87.5497 94° East 239 275 7,100 3,060 Climbing Chicago Center
06:33PM 41.7975 -87.4383 99° East 291 335 10,600 3,000 Climbing Chicago Center
06:34PM 41.7872 -87.3128 96° East 328 377 13,300 2,580 Climbing Chicago Center
06:35PM 41.7719 -87.1672 98° East 377 434 15,900 2,820 Climbing Chicago Center
06:36PM 41.6940 -86.9368 90° East  Level Estimated
06:36PM 41.7597 -87.0086 96° East 417 480 19,100  Level Chicago Center
06:38PM 41.7636 -86.8378 88° East 438 504 21,600 2,460 Climbing Chicago Center
06:39PM 41.7642 -86.6622 90° East 464 534 24,200 2,940 Climbing Chicago Center
06:40PM 41.7656 -86.4856 89° East 472 543 27,700 2,280 Climbing Chicago Center
06:41PM 41.7669 -86.3178 89° East 457 526 29,000 600 Climbing Chicago Center
06:42PM 41.7547 -86.1119 94° East 460 529 29,000  Level Chicago Center
06:43PM 41.7450 -85.9433 94° East 456 525 29,000  Level Chicago Center
06:44PM 41.7347 -85.7714 95° East 460 529 29,000  Level Chicago Center
06:45PM 41.7236 -85.5994 95° East 461 531 29,000  Level Chicago Center
06:46PM 41.7128 -85.4056 94° East 461 531 29,000  Level Chicago Center
06:47PM 41.6992 -85.2433 96° East 466 536 29,000  Level Chicago Center
06:48PM 41.6881 -85.0675 95° East 470 541 29,000  Level Chicago Center
06:49PM 41.6756 -84.8950 95° East 468 539 29,000  Level Chicago Center
06:50PM 41.6589 -84.7206 97° East 471 542 29,000  Level Chicago Center
06:51PM 41.6242 -84.5517 105° East 471 542 29,000  Level Chicago Center
06:52PM 41.5933 -84.3811 104° East 470 541 29,000  Level Chicago Center
06:53PM 41.5542 -84.1772 104° East 473 544 29,000  Level Chicago Center
06:54PM 41.5222 -84.0061 104° East 474 545 29,000 -240 Level Chicago Center
06:55PM 41.4903 -83.8344 104° East 477 549 28,600 -660 Descending Chicago Center
06:56PM 41.4556 -83.6636 105° East 478 550 27,700 -1,020 Descending Chicago Center
06:57PM 41.3811 -83.5103 123° Southeast 464 534 26,600 -1,020 Descending Cleveland Center
06:58PM 41.3058 -83.3728 126° Southeast 464 534 25,700 -960 Descending Cleveland Center
06:59PM 41.2300 -83.2353 126° Southeast 463 533 24,700 -1,020 Descending Cleveland Center
07:00PM 41.1553 -83.1008 126° Southeast 459 528 23,700 -1,080 Descending Cleveland Center
07:01PM 41.0719 -82.9381 124° Southeast 456 525 22,500 -1,080 Descending Cleveland Center
07:02PM 41.0231 -82.7825 113° Southeast 456 525 21,500 -1,020 Descending Cleveland Center
07:03PM 40.9753 -82.6333 113° Southeast 442 509 20,500 -1,020 Descending Cleveland Center
07:04PM 40.9278 -82.4867 113° Southeast 432 497 19,500 -2,040 Descending Cleveland Center
07:05PM 40.8806 -82.3403 113° Southeast 433 498 16,400 -2,940 Descending Cleveland Center
07:06PM 40.8311 -82.1864 113° Southeast 448 516 13,600 -2,580 Descending Cleveland Center
07:07PM 40.7853 -82.0403 112° Southeast 436 502 11,200 -1,800 Descending Cleveland Center
07:08PM 40.7442 -81.9189 114° Southeast 369 425 10,000 -1,080 Descending Cleveland Center
07:09PM 40.7739 -81.8167 69° East 319 367 9,000 -1,080 Descending Cleveland Center
07:10PM 40.8278 -81.7375 48° Northeast 292 336 7,900 -1,200 Descending Cleveland Center
07:11PM 40.8833 -81.6558 48° Northeast 296 341 6,600 -1,380 Descending Cleveland Center
07:12PM 40.9353 -81.5761 49° Northeast 290 334 5,200 -1,320 Descending Cleveland Center
07:13PM 40.9881 -81.4992 48° Northeast 283 326 4,000 -600 Descending Cleveland Center
07:14PM 41.0436 -81.4208 47° Northeast 257 296 4,000 -120 Level Cleveland Center
07:15PM 41.0281 -81.3508 106° East 221 254 3,800 -480 Descending Cleveland Center
07:16PM 40.9881 -81.3400 168° South 166 191 3,100 -660 Descending Cleveland Center
07:17PM 40.9639 -81.3719 225° Southwest 132 152 2,500 -660 Descending Cleveland Center
07:18PM 40.9406 -81.4053 227° Southwest 126 145 1,800 -600 Descending Cleveland Center
07:19PM 40.9183 -81.4364 227° Southwest 123 142 1,400 -420 Descending Cleveland Center